Date,TemperatureHighF,TemperatureAvgF,TemperatureLowF,DewpointHighF,DewpointAvgF,DewpointLowF,HumidityHigh,HumidityAvg,HumidityLow,PressureMaxIn,PressureMinIn,WindSpeedMaxMPH,WindSpeedAvgMPH,GustSpeedMaxMPH,PrecipitationSumIn
2013-3-1,47.9,37.0,29.2,34.5,25.9,20.5,86,66,45,30.08,29.74,4,1,5,0.01
2013-3-2,40.7,35.7,31.9,24.5,21.9,17.6,63,57,50,30.10,29.84,6,1,7,0.00
2013-3-3,38.9,32.5,28.5,27.4,20.6,16.5,70,61,55,30.06,29.78,6,1,6,0.00
2013-3-4,38.2,31.2,25.6,20.6,16.2,11.7,59,53,45,30.17,29.90,5,2,100,0.00
2013-3-5,45.0,36.8,29.2,24.5,20.9,15.0,63,52,43,30.48,30.07,4,1,8,0.00
2013-3-6,39.5,35.8,33.2,30.8,25.8,21.6,80,67,55,30.54,30.22,8,2,10,0.00
2013-3-7,38.2,34.0,31.2,28.6,25.3,21.8,82,70,57,30.53,30.22,6,2,9,0.05
2013-3-8,40.4,34.9,31.0,27.2,24.8,19.3,81,67,51,30.60,30.19,5,1,6,0.15
2013-3-9,56.6,39.1,24.0,32.2,18.0,12.1,78,47,19,30.63,30.41,6,1,29,0.00
2013-3-10,51.2,35.6,24.2,30.1,22.3,15.5,75,59,34,30.79,29.61,4,1,5,0.00
2013-3-11,49.4,42.0,35.3,38.5,32.2,27.2,78,68,58,29.73,29.42,4,2,6,0.00
2013-3-12,51.7,46.8,41.3,49.6,43.5,35.9,93,88,78,29.55,29.03,4,1,8,0.87
2013-3-13,48.8,40.6,32.4,35.6,24.3,11.9,84,56,26,29.34,29.11,5,1,6,0.00
2013-3-14,35.7,29.3,24.0,19.8,7.6,-2.3,53,40,25,29.47,29.14,7,2,7,0.00
2013-3-15,40.5,31.4,22.2,27.1,9.8,-4.7,76,42,21,29.46,29.01,8,3,11,0.00
2013-3-16,38.7,32.5,24.9,19.9,8.1,2.8,56,36,24,29.40,29.09,4,1,5,0.00
2013-3-17,37.1,30.7,23.4,12.3,3.3,-6.1,52,32,20,29.72,29.24,6,2,8,0.00
2013-3-18,39.3,29.1,16.2,20.0,1.6,-6.5,69,32,20,29.98,29.49,5,1,7,0.00
2013-3-19,33.9,30.9,27.9,29.3,26.1,20.1,85,82,70,29.60,29.02,2,0,4,0.00
2013-3-20,36.2,30.4,24.3,26.5,16.8,14.1,83,57,43,29.31,29.01,8,1,9,0.07
2013-3-21,39.8,28.9,15.9,18.6,11.2,4.6,72,50,26,29.38,28.97,4,1,98,0.05
2013-3-22,39.1,30.6,19.8,20.6,14.9,9.8,66,52,42,29.29,29.00,7,2,8,0.09
2013-3-23,40.9,34.6,28.8,19.8,16.9,13.7,64,49,34,29.33,29.05,7,2,11,0.04
2013-3-24,45.4,37.5,30.5,22.3,19.1,15.3,59,48,35,29.42,29.07,6,1,6,0.00
2013-3-25,45.4,37.5,28.8,26.4,21.7,17.9,69,53,37,29.32,28.83,8,1,12,0.00
2013-3-26,47.2,38.8,29.7,30.0,22.0,13.5,73,52,28,29.34,28.93,3,0,4,0.00
2013-3-27,54.9,37.6,25.2,32.7,21.8,15.9,68,56,24,30.00,29.32,4,1,5,0.00
2013-3-28,50.6,42.7,35.7,34.1,29.0,26.6,81,59,43,30.22,29.78,4,0,4,0.01
2013-3-29,58.7,45.0,32.3,33.5,27.6,23.4,77,53,28,30.12,29.83,5,1,8,0.00
2013-3-30,57.6,45.6,29.9,31.4,21.6,14.1,74,43,20,30.14,29.87,4,1,7,0.00
2013-3-31,56.7,42.9,28.5,38.7,25.6,19.6,85,55,25,30.19,29.59,7,1,10,0.08